Archival Weather

Norman Y Mineta San Jose Intl

San Jose, California (KSJC)

Report from: Saturday, February 17, 2024 9:15 PM PST
Current time: Monday, June 24, 2024 2:58 AM PDT

Current weather – Weather history – Daily summaries
Weather forecast

Present weatherLight rain
Temperature13.3°C (55.9°F)
Dew point10.6°C (51.1°F)
Winds 5 kts (2.6 m/s, 5.8 mph) South-Southwest (200°)
Visibility5 mi. (8 km)
Clouds Ceiling: Broken clouds 2,200 ft. (671 m)
Overcast 3,000 ft. (914 m)
Altimeter29.95 in.Hg (1014 mB)
Precipitiation0.01 in. (0 mm)
Relative humidity84 %
Density altitude-54 ft. (-17 m)
Remarks Automated weather observing station with precipitation discriminator
Flight conditions Marginal Visual Meteorological Conditions
Raw dataKSJC 180515Z 20005KT 5SM -RA BKN022 OVC030 13/11 A2995 RMK AO2 P0001 T01330106
An error has occurred. This application may no longer respond until reloaded. Reload 🗙